createdAt,value
2022-12-01T00:01:36.933Z,62.45
2022-12-01T00:04:05.612Z,63.00
2022-12-01T00:06:35.215Z,61.17
2022-12-01T00:09:20.829Z,60.55
2022-12-01T00:11:49.700Z,61.28
2022-12-01T00:14:17.960Z,62.42
2022-12-01T00:16:46.408Z,61.97
2022-12-01T00:19:14.945Z,62.10
2022-12-01T00:21:44.609Z,64.47
2022-12-01T00:24:13.183Z,64.85
2022-12-01T00:26:41.422Z,62.10
2022-12-01T00:29:09.989Z,60.92
2022-12-01T00:31:38.632Z,69.85
2022-12-01T00:34:11.237Z,62.17
2022-12-01T00:36:40.604Z,64.07
2022-12-01T00:39:11.274Z,65.20
2022-12-01T00:44:07.622Z,63.63
2022-12-01T00:46:35.856Z,63.75
2022-12-01T00:49:04.485Z,68.70
2022-12-01T00:51:32.927Z,66.90
2022-12-01T00:54:01.106Z,63.90
2022-12-01T00:56:30.713Z,69.07
2022-12-01T00:58:59.634Z,61.83
2022-12-01T01:01:27.906Z,67.15
2022-12-01T01:03:56.288Z,68.38
2022-12-01T01:06:24.758Z,67.45
2022-12-01T01:08:53.004Z,67.90
2022-12-01T01:11:21.314Z,68.03
2022-12-01T01:13:50.989Z,71.88
2022-12-01T01:16:21.417Z,71.37
2022-12-01T01:18:50.340Z,77.00
2022-12-01T01:21:22.050Z,72.82
2022-12-01T01:23:50.912Z,70.10
2022-12-01T01:26:21.480Z,79.03
2022-12-01T01:28:52.463Z,76.50
2022-12-01T01:31:23.998Z,75.60
2022-12-01T01:33:52.631Z,79.68
2022-12-01T01:36:21.243Z,83.55
2022-12-01T01:38:51.554Z,81.60
2022-12-01T01:41:21.099Z,81.95
2022-12-01T01:43:52.762Z,78.97
2022-12-01T01:46:23.357Z,82.45
2022-12-01T01:51:28.165Z,84.28
2022-12-01T01:54:01.454Z,85.25
2022-12-01T01:56:30.456Z,86.03
2022-12-01T01:59:00.849Z,84.85
2022-12-01T02:01:29.225Z,91.40
2022-12-01T02:03:57.980Z,91.97
2022-12-01T02:06:26.251Z,81.22
2022-12-01T02:08:54.617Z,85.95
2022-12-01T02:11:52.348Z,87.88
2022-12-01T02:14:51.025Z,87.47
2022-12-01T02:17:31.819Z,84.68
2022-12-01T02:20:36.419Z,86.88
2022-12-01T02:23:29.968Z,85.72
2022-12-01T02:26:17.665Z,83.70
2022-12-01T02:29:25.775Z,87.70
2022-12-01T02:32:01.822Z,85.68
2022-12-01T02:34:36.838Z,89.13
2022-12-01T02:37:12.769Z,92.78
2022-12-01T02:39:53.396Z,83.22
2022-12-01T02:42:43.690Z,88.07
2022-12-01T02:45:20.727Z,90.35
2022-12-01T02:47:54.399Z,87.97
2022-12-01T02:50:25.265Z,85.80
2022-12-01T02:52:55.656Z,88.18
2022-12-01T02:55:23.893Z,89.78
2022-12-01T02:57:52.118Z,85.85
2022-12-01T03:00:20.877Z,85.55
2022-12-01T03:03:10.717Z,88.95
2022-12-01T03:05:49.470Z,85.93
2022-12-01T03:08:27.487Z,92.57
2022-12-01T03:10:58.518Z,93.18
2022-12-01T03:13:39.897Z,92.43
2022-12-01T03:16:14.034Z,91.65
2022-12-01T03:18:50.504Z,86.43
2022-12-01T03:21:26.641Z,86.07
2022-12-01T03:23:59.851Z,86.10
2022-12-01T03:26:32.647Z,89.20
2022-12-01T03:29:06.845Z,93.88
2022-12-01T03:31:41.010Z,91.38
2022-12-01T03:34:15.639Z,88.35
2022-12-01T03:36:48.728Z,88.10
2022-12-01T03:39:24.074Z,90.20
2022-12-01T03:41:57.745Z,88.03
2022-12-01T03:44:33.046Z,86.97
2022-12-01T03:47:05.464Z,96.15
2022-12-01T03:49:36.560Z,91.10
2022-12-01T03:52:17.430Z,90.43
2022-12-01T03:54:53.154Z,91.78
2022-12-01T03:57:27.673Z,88.80
2022-12-01T03:59:56.525Z,94.30
2022-12-01T04:02:27.612Z,94.57
2022-12-01T04:04:57.247Z,91.88
2022-12-01T04:07:25.665Z,95.85
2022-12-01T04:09:53.925Z,91.82
2022-12-01T04:12:32.790Z,92.63
2022-12-01T04:15:02.922Z,88.70
2022-12-01T04:17:31.230Z,96.80
2022-12-01T04:20:01.369Z,90.78
2022-12-01T04:22:29.633Z,90.47
2022-12-01T04:24:57.860Z,92.95
2022-12-01T04:27:26.164Z,90.13
2022-12-01T04:29:54.365Z,95.53
2022-12-01T04:32:22.830Z,94.05
2022-12-01T04:34:51.229Z,89.32
2022-12-01T04:37:21.927Z,90.82
2022-12-01T04:42:18.486Z,94.88
2022-12-01T04:44:46.710Z,90.50
2022-12-01T04:47:14.925Z,98.05
2022-12-01T04:49:43.161Z,89.82
2022-12-01T04:52:11.676Z,86.80
2022-12-01T04:54:41.447Z,88.68
2022-12-01T04:57:09.741Z,92.10
2022-12-01T04:59:37.958Z,90.80
2022-12-01T05:02:06.261Z,94.03
2022-12-01T05:04:38.443Z,88.35
2022-12-01T05:07:06.705Z,92.93
2022-12-01T05:09:34.913Z,93.57
2022-12-01T05:12:04.823Z,90.05
2022-12-01T05:14:33.077Z,87.95
2022-12-01T05:17:02.288Z,87.78
2022-12-01T05:19:48.065Z,94.57
2022-12-01T05:22:16.730Z,87.88
2022-12-01T05:24:45.104Z,90.60
2022-12-01T05:27:14.757Z,91.10
2022-12-01T05:29:42.940Z,91.78
2022-12-01T05:32:11.218Z,90.80
2022-12-01T05:34:39.489Z,94.80
2022-12-01T05:37:07.713Z,89.50
2022-12-01T05:39:35.921Z,90.65
2022-12-01T05:42:04.360Z,92.28
2022-12-01T05:44:33.965Z,92.00
2022-12-01T05:47:02.279Z,88.25
2022-12-01T05:49:30.489Z,90.45
2022-12-01T05:51:58.782Z,88.85
2022-12-01T05:54:27.066Z,89.70
2022-12-01T05:56:55.307Z,85.45
2022-12-01T05:59:23.645Z,93.32
2022-12-01T06:01:53.281Z,88.15
2022-12-01T06:04:21.838Z,87.37
2022-12-01T06:06:50.077Z,92.30
2022-12-01T06:09:18.335Z,92.38
2022-12-01T06:11:50.041Z,88.30
2022-12-01T06:14:20.576Z,84.32
2022-12-01T06:16:48.821Z,86.72
2022-12-01T06:19:18.496Z,89.43
2022-12-01T06:21:46.764Z,87.72
2022-12-01T06:24:15.125Z,94.45
2022-12-01T06:26:43.324Z,87.60
2022-12-01T06:29:11.810Z,96.47
2022-12-01T06:31:40.121Z,90.53
2022-12-01T06:34:08.469Z,86.43
2022-12-01T06:36:38.088Z,88.70
2022-12-01T06:39:09.272Z,88.28
2022-12-01T06:41:37.605Z,93.25
2022-12-01T06:44:06.483Z,89.15
2022-12-01T06:46:34.851Z,89.45
2022-12-01T06:49:03.148Z,92.15
2022-12-01T06:51:34.211Z,87.97
2022-12-01T06:54:05.632Z,97.32
2022-12-01T06:56:34.176Z,91.03
2022-12-01T06:59:02.682Z,94.50
2022-12-01T07:01:31.351Z,93.22
2022-12-01T07:03:59.597Z,97.25
2022-12-01T07:06:28.290Z,97.50
2022-12-01T07:08:56.709Z,94.75
2022-12-01T07:11:26.281Z,93.75
2022-12-01T07:13:57.254Z,94.40
2022-12-01T07:16:25.728Z,95.45
2022-12-01T07:18:53.973Z,92.60
2022-12-01T07:21:22.269Z,87.85
2022-12-01T07:23:50.436Z,97.57
2022-12-01T07:26:19.767Z,96.80
2022-12-01T07:28:49.281Z,103.63
2022-12-01T07:31:20.280Z,85.90
2022-12-01T07:33:48.598Z,93.00
2022-12-01T07:36:17.217Z,93.55
2022-12-01T07:38:45.480Z,92.43
2022-12-01T07:41:16.660Z,98.72
2022-12-01T07:43:44.946Z,87.32
2022-12-01T07:46:22.218Z,90.13
2022-12-01T07:48:51.533Z,97.90
2022-12-01T07:51:20.359Z,86.50
2022-12-01T07:53:50.749Z,89.78
2022-12-01T07:56:20.206Z,87.07
2022-12-01T07:58:48.637Z,91.05
2022-12-01T08:01:21.092Z,86.85
2022-12-01T08:03:50.502Z,93.60
2022-12-01T08:06:19.548Z,92.47
2022-12-01T08:08:48.226Z,89.72
2022-12-01T08:11:20.029Z,88.90
2022-12-01T08:13:48.467Z,94.25
2022-12-01T08:16:22.642Z,86.35
2022-12-01T08:18:51.549Z,90.97
2022-12-01T08:21:23.138Z,91.63
2022-12-01T08:23:55.564Z,95.22
2022-12-01T08:26:25.691Z,92.60
2022-12-01T08:28:54.027Z,96.32
2022-12-01T08:31:26.652Z,90.03
2022-12-01T08:33:55.544Z,90.65
2022-12-01T08:36:24.890Z,86.97
2022-12-01T08:38:55.540Z,88.25
2022-12-01T08:44:00.980Z,94.47
2022-12-01T08:46:34.866Z,81.20
2022-12-01T08:49:04.583Z,87.60
2022-12-01T08:51:33.683Z,89.07
2022-12-01T08:54:02.018Z,86.53
2022-12-01T08:56:33.345Z,82.95
2022-12-01T08:59:02.137Z,83.07
2022-12-01T09:01:32.852Z,78.95
2022-12-01T09:04:09.345Z,82.45
2022-12-01T09:06:41.661Z,81.50
2022-12-01T09:09:11.829Z,77.15
2022-12-01T09:11:41.389Z,75.18
2022-12-01T09:14:09.708Z,84.45
2022-12-01T09:16:39.407Z,79.45
2022-12-01T09:19:07.909Z,80.45
2022-12-01T09:21:38.015Z,78.30
2022-12-01T09:24:08.711Z,76.15
2022-12-01T09:29:08.625Z,74.95
2022-12-01T09:31:38.892Z,78.18
2022-12-01T09:34:09.851Z,72.72
2022-12-01T09:36:39.238Z,76.75
2022-12-01T09:39:09.184Z,74.82
2022-12-01T09:41:42.811Z,72.53
2022-12-01T09:44:20.792Z,70.68
2022-12-01T09:46:54.967Z,75.22
2022-12-01T09:49:26.497Z,80.25
2022-12-01T09:51:56.029Z,75.75
2022-12-01T09:54:24.226Z,73.82
2022-12-01T09:56:55.777Z,78.22
2022-12-01T09:59:26.560Z,74.80
2022-12-01T10:04:36.027Z,77.93
2022-12-01T10:07:07.752Z,82.97
2022-12-01T10:09:42.418Z,76.10
2022-12-01T10:12:17.640Z,80.38
2022-12-01T10:14:47.701Z,78.97
2022-12-01T10:17:30.312Z,76.07
2022-12-01T10:20:05.813Z,78.78
2022-12-01T10:23:18.412Z,78.82
2022-12-01T10:25:57.902Z,79.30
2022-12-01T10:28:47.897Z,78.13
2022-12-01T10:31:21.392Z,77.73
2022-12-01T10:34:02.112Z,76.22
2022-12-01T10:36:33.301Z,76.45
2022-12-01T10:39:02.285Z,72.90
2022-12-01T10:41:33.706Z,71.45
2022-12-01T10:44:05.571Z,72.10
2022-12-01T10:46:42.339Z,67.95
2022-12-01T10:49:14.711Z,73.95
2022-12-01T10:51:53.847Z,73.88
2022-12-01T10:54:24.196Z,71.38
2022-12-01T10:56:57.759Z,71.35
2022-12-01T10:59:34.261Z,71.82
2022-12-01T11:02:05.378Z,68.50
2022-12-01T11:04:45.190Z,71.93
2022-12-01T11:07:21.034Z,70.07
2022-12-01T11:10:04.987Z,70.22
2022-12-01T11:12:34.185Z,71.78
2022-12-01T11:15:03.278Z,73.13
2022-12-01T11:17:36.873Z,68.68
2022-12-01T11:20:33.189Z,69.55
2022-12-01T11:23:28.342Z,71.88
2022-12-01T11:26:14.713Z,64.57
2022-12-01T11:28:53.647Z,63.67
2022-12-01T11:31:27.922Z,67.38
2022-12-01T11:33:57.965Z,67.55
2022-12-01T11:36:39.977Z,61.28
2022-12-01T11:39:08.286Z,59.67
2022-12-01T11:41:40.986Z,66.10
2022-12-01T11:44:49.719Z,66.32
2022-12-01T11:47:23.346Z,64.88
2022-12-01T11:49:58.681Z,64.22
2022-12-01T11:52:32.442Z,64.60
2022-12-01T11:55:10.130Z,63.40
2022-12-01T11:57:42.929Z,65.10
2022-12-01T12:00:15.909Z,64.90
2022-12-01T12:03:13.040Z,66.43
2022-12-01T12:09:26.984Z,60.00
2022-12-01T12:12:08.351Z,63.00
2022-12-01T12:14:53.776Z,58.20
2022-12-01T12:17:45.584Z,60.05
2022-12-01T12:20:46.866Z,64.07
2022-12-01T12:23:41.066Z,57.28
2022-12-01T12:26:20.555Z,65.03
2022-12-01T12:29:16.256Z,54.72
2022-12-01T12:31:58.925Z,49.53
2022-12-01T12:34:46.810Z,50.20
2022-12-01T12:37:26.242Z,51.85
2022-12-01T12:40:30.453Z,65.38
2022-12-01T12:43:20.307Z,59.03
2022-12-01T12:46:01.386Z,62.53
2022-12-01T12:49:12.134Z,59.70
2022-12-01T12:51:43.827Z,54.97
2022-12-01T12:54:23.367Z,46.20
2022-12-01T12:57:00.402Z,42.40
2022-12-01T12:59:38.163Z,40.28
2022-12-01T13:02:15.042Z,48.33
2022-12-01T13:04:50.642Z,53.30
2022-12-01T13:07:35.813Z,51.35
2022-12-01T13:10:13.189Z,47.78
2022-12-01T13:12:52.779Z,49.08
2022-12-01T13:15:23.274Z,51.85
2022-12-01T13:17:55.259Z,47.33
2022-12-01T13:20:28.736Z,52.13
2022-12-01T13:22:59.636Z,48.80
2022-12-01T13:25:32.179Z,50.05
2022-12-01T13:28:03.918Z,63.22
2022-12-01T13:30:33.642Z,54.28
2022-12-01T13:33:05.442Z,48.63
2022-12-01T13:35:36.268Z,44.75
2022-12-01T13:40:51.361Z,46.08
2022-12-01T13:43:22.778Z,44.95
2022-12-01T13:45:53.268Z,46.00
2022-12-01T13:48:31.383Z,48.28
2022-12-01T13:51:02.604Z,46.67
2022-12-01T13:53:36.217Z,48.83
2022-12-01T13:56:28.492Z,46.10
2022-12-01T13:58:57.072Z,47.22
2022-12-01T14:01:49.895Z,50.55
2022-12-01T14:04:32.541Z,50.20
2022-12-01T14:07:37.339Z,47.70
2022-12-01T14:10:25.688Z,54.78
2022-12-01T14:12:57.761Z,54.50
2022-12-01T14:15:40.308Z,56.42
2022-12-01T14:18:32.997Z,50.90
2022-12-01T14:21:03.243Z,53.95
2022-12-01T14:23:34.298Z,58.28
2022-12-01T14:26:14.465Z,52.35
2022-12-01T14:29:11.680Z,48.97
2022-12-01T14:32:25.897Z,54.40
2022-12-01T14:35:04.192Z,50.85
2022-12-01T14:37:43.766Z,50.90
2022-12-01T14:40:26.873Z,50.53
2022-12-01T14:43:15.504Z,49.22
2022-12-01T14:45:57.477Z,50.17
2022-12-01T14:48:34.236Z,53.50
2022-12-01T14:51:18.160Z,47.38
2022-12-01T14:53:49.967Z,48.22
2022-12-01T14:56:20.878Z,47.63
2022-12-01T14:58:57.676Z,48.35
2022-12-01T15:01:31.406Z,42.90
2022-12-01T15:04:03.819Z,46.80
2022-12-01T15:06:36.372Z,47.20
2022-12-01T15:12:07.487Z,42.25
2022-12-01T15:14:38.539Z,43.47
2022-12-01T15:17:08.966Z,44.15
2022-12-01T15:22:15.837Z,43.50
2022-12-01T15:24:44.888Z,43.28
2022-12-01T15:27:29.891Z,46.50
2022-12-01T15:30:03.300Z,45.67
2022-12-01T15:32:33.997Z,46.08
2022-12-01T15:35:04.707Z,45.92
2022-12-01T15:43:08.410Z,36.90
2022-12-01T15:48:29.935Z,41.38
2022-12-01T15:51:07.683Z,38.15
2022-12-01T15:53:40.617Z,36.78
2022-12-01T15:56:11.161Z,37.15
2022-12-01T15:58:45.057Z,42.28
2022-12-01T16:01:16.117Z,42.78
2022-12-01T16:03:55.979Z,37.55
2022-12-01T16:06:30.120Z,40.65
2022-12-01T16:09:04.787Z,38.75
2022-12-01T16:11:33.254Z,38.30
2022-12-01T16:14:06.996Z,37.03
2022-12-01T16:16:42.153Z,38.75
2022-12-01T16:19:28.441Z,38.85
2022-12-01T16:22:03.284Z,35.75
2022-12-01T16:24:35.830Z,38.60
2022-12-01T16:27:06.600Z,36.88
2022-12-01T16:32:22.251Z,36.05
2022-12-01T16:34:52.949Z,39.30
2022-12-01T16:37:22.587Z,40.17
2022-12-01T16:39:52.306Z,35.25
2022-12-01T16:42:22.272Z,34.75
2022-12-01T16:44:52.100Z,35.53
2022-12-01T16:47:22.910Z,33.63
2022-12-01T16:49:51.981Z,36.58
2022-12-01T16:55:38.992Z,34.55
2022-12-01T16:58:07.374Z,32.42
2022-12-01T17:00:36.611Z,34.92
2022-12-01T17:03:05.332Z,33.80
2022-12-01T17:05:33.803Z,38.15
2022-12-01T17:08:02.378Z,38.83
2022-12-01T17:10:32.229Z,41.25
2022-12-01T17:13:00.653Z,38.50
2022-12-01T17:15:29.014Z,38.33
2022-12-01T17:17:57.398Z,39.88
2022-12-01T17:20:25.846Z,39.65
2022-12-01T17:22:54.365Z,36.53
2022-12-01T17:25:22.674Z,41.42
2022-12-01T17:27:54.095Z,37.20
2022-12-01T17:30:23.479Z,42.17
2022-12-01T17:32:51.803Z,34.80
2022-12-01T17:35:20.098Z,43.05
2022-12-01T17:37:48.390Z,39.88
2022-12-01T17:40:16.733Z,38.42
2022-12-01T17:42:50.198Z,39.50
2022-12-01T17:45:20.629Z,42.80
2022-12-01T17:47:48.943Z,43.63
2022-12-01T17:50:17.463Z,43.80
2022-12-01T17:52:46.488Z,43.40
2022-12-01T17:55:14.783Z,44.42
2022-12-01T17:57:43.149Z,41.15
2022-12-01T18:00:13.369Z,52.15
2022-12-01T18:02:43.040Z,49.25
2022-12-01T18:05:11.618Z,45.60
2022-12-01T18:07:39.885Z,41.53
2022-12-01T18:10:09.036Z,40.67
2022-12-01T18:12:37.449Z,38.08
2022-12-01T18:15:07.477Z,35.92
2022-12-01T18:17:35.838Z,37.47
2022-12-01T18:20:06.878Z,40.33
2022-12-01T18:22:35.173Z,40.65
2022-12-01T18:25:03.417Z,45.70
2022-12-01T18:27:31.819Z,48.60
2022-12-01T18:30:00.140Z,52.97
2022-12-01T18:32:28.612Z,53.80
2022-12-01T18:34:56.983Z,54.97
2022-12-01T18:37:26.643Z,36.85
2022-12-01T18:39:56.774Z,36.92
2022-12-01T18:42:25.179Z,35.78
2022-12-01T18:44:53.485Z,32.60
2022-12-01T18:47:21.877Z,45.03
2022-12-01T18:49:50.113Z,35.95
2022-12-01T18:52:18.585Z,40.85
2022-12-01T18:54:48.659Z,38.53
2022-12-01T18:57:19.029Z,36.45
2022-12-01T19:02:16.232Z,33.08
2022-12-01T19:04:44.691Z,39.03
2022-12-01T19:07:13.401Z,42.58
2022-12-01T19:09:42.139Z,44.80
2022-12-01T19:12:12.019Z,43.58
2022-12-01T19:14:40.431Z,37.60
2022-12-01T19:17:08.808Z,35.53
2022-12-01T19:19:37.771Z,46.10
2022-12-01T19:22:06.244Z,47.65
2022-12-01T19:24:34.829Z,40.25
2022-12-01T19:27:03.190Z,36.08
2022-12-01T19:29:32.952Z,37.80
2022-12-01T19:34:30.340Z,38.90
2022-12-01T19:36:58.728Z,39.03
2022-12-01T19:39:27.161Z,42.45
2022-12-01T19:41:57.411Z,38.38
2022-12-01T19:44:25.754Z,33.78
2022-12-01T19:46:55.380Z,37.78
2022-12-01T19:49:23.684Z,33.42
2022-12-01T19:51:52.137Z,35.22
2022-12-01T19:54:21.658Z,41.35
2022-12-01T19:56:50.216Z,35.13
2022-12-01T19:59:18.630Z,29.80
2022-12-01T20:01:47.125Z,36.75
2022-12-01T20:04:16.791Z,34.50
2022-12-01T20:06:45.986Z,31.73
2022-12-01T20:09:14.546Z,31.73
2022-12-01T20:11:42.872Z,29.02
2022-12-01T20:14:11.959Z,32.72
2022-12-01T20:16:40.457Z,41.45
2022-12-01T20:19:09.000Z,43.78
2022-12-01T20:21:42.548Z,38.45
2022-12-01T20:24:16.320Z,32.83
2022-12-01T20:29:18.089Z,43.15
2022-12-01T20:31:47.361Z,39.90
2022-12-01T20:34:19.624Z,38.40
2022-12-01T20:36:50.645Z,37.75
2022-12-01T20:39:18.977Z,43.95
2022-12-01T20:41:47.538Z,39.30
2022-12-01T20:44:16.998Z,46.15
2022-12-01T20:46:47.453Z,37.95
2022-12-01T20:49:18.257Z,43.25
2022-12-01T20:54:33.220Z,45.42
2022-12-01T20:57:01.595Z,47.15
2022-12-01T20:59:30.299Z,47.17
2022-12-01T21:01:58.686Z,45.47
2022-12-01T21:04:27.167Z,43.30
2022-12-01T21:06:57.337Z,46.30
2022-12-01T21:09:27.625Z,51.03
2022-12-01T21:12:15.314Z,39.85
2022-12-01T21:14:46.718Z,35.55
2022-12-01T21:17:30.862Z,40.47
2022-12-01T21:20:07.030Z,42.97
2022-12-01T21:22:36.916Z,45.10
2022-12-01T21:25:15.778Z,44.65
2022-12-01T21:27:44.219Z,41.58
2022-12-01T21:30:19.111Z,36.35
2022-12-01T21:32:48.329Z,41.53
2022-12-01T21:35:20.750Z,41.72
2022-12-01T21:37:50.396Z,42.17
2022-12-01T21:40:24.231Z,43.15
2022-12-01T21:42:52.942Z,44.85
2022-12-01T21:45:29.119Z,44.63
2022-12-01T21:48:02.328Z,45.00
2022-12-01T21:50:32.728Z,44.40
2022-12-01T21:53:01.242Z,47.58
2022-12-01T21:55:37.027Z,48.42
2022-12-01T21:58:24.510Z,47.38
2022-12-01T22:00:53.937Z,46.60
2022-12-01T22:03:32.631Z,53.78
2022-12-01T22:06:28.842Z,47.67
2022-12-01T22:08:56.913Z,47.67
2022-12-01T22:11:29.098Z,47.83
2022-12-01T22:14:12.590Z,48.40
2022-12-01T22:16:44.162Z,50.53
2022-12-01T22:19:27.439Z,52.65
2022-12-01T22:22:02.706Z,46.20
2022-12-01T22:24:41.914Z,49.25
2022-12-01T22:27:31.729Z,52.88
2022-12-01T22:30:03.696Z,50.17
2022-12-01T22:32:45.450Z,47.33
2022-12-01T22:35:25.531Z,48.00
2022-12-01T22:37:59.623Z,48.58
2022-12-01T22:40:39.369Z,46.88
2022-12-01T22:43:49.741Z,48.40
2022-12-01T22:46:27.843Z,55.88
2022-12-01T22:48:58.568Z,56.83
2022-12-01T22:54:40.018Z,51.67
2022-12-01T22:57:33.050Z,53.50
2022-12-01T23:00:15.886Z,56.88
2022-12-01T23:02:44.458Z,55.72
2022-12-01T23:05:23.443Z,51.40
2022-12-01T23:07:53.035Z,51.85
2022-12-01T23:10:23.910Z,53.97
2022-12-01T23:12:54.725Z,54.20
2022-12-01T23:15:35.203Z,54.92
2022-12-01T23:18:14.859Z,56.05
2022-12-01T23:20:44.798Z,55.28
2022-12-01T23:23:16.756Z,55.45
2022-12-01T23:25:46.833Z,52.97
2022-12-01T23:28:16.009Z,54.03
2022-12-01T23:30:50.037Z,58.08
2022-12-01T23:33:21.422Z,59.13
2022-12-01T23:35:55.838Z,57.95
2022-12-01T23:38:31.192Z,58.75
2022-12-01T23:41:03.534Z,59.05
2022-12-01T23:43:38.254Z,58.55
2022-12-01T23:46:11.955Z,61.50
2022-12-01T23:48:44.897Z,58.95
2022-12-01T23:51:20.331Z,59.00
2022-12-01T23:53:48.798Z,55.47
2022-12-01T23:56:21.405Z,56.78
2022-12-01T23:58:50.441Z,62.55
